2013 Windsor Green Half Marathon

2013 Windsor Green

Overall Finish List

May 19, 2013


Results by: Capital Road Race Management

Half Marathon

Place Name City Bib No Age Gender Age Group Chip Time Gun Time Chip Diff Pace
1 Jady Palko Windsor CA 405 39 M 1 35-39 1:23:49.81 1:23:50.13 0:00.32 6:24/M
2 Sarah Hallas Petaluma CA 217 33 F 1 30-34 1:24:31.96 1:24:32.13 0:00.17 6:27/M
3 Mark Shirra San Rafael CA 492 40 M 1 40-44 1:25:46.74 1:25:47.23 0:00.49 6:33/M
4 Jason Saling Santa Rosa CA 473 42 M 2 40-44 1:26:55.42 1:26:59.75 0:04.33 6:38/M
5 Trent Packard Sacramento CA 402 28 M 1 25-29 1:27:01.19 1:27:02.98 0:01.79 6:39/M
6 Katie Ross Lincoln CA 464 26 F 1 25-29 1:27:14.06 1:27:14.23 0:00.17 6:40/M
7 Steve Lohrer Santa Rosa CA 314 47 M 1 45-49 1:28:07.80 1:28:08.93 0:01.13 6:44/M
8 Sam Hollis San Francisco CA 240 36 M 2 35-39 1:28:28.59 1:28:32.05 0:03.46 6:45/M
9 Jacqueline Komrij Santa Rosa CA 286 48 F 1 45-49 1:29:01.67 1:29:02.28 0:00.61 6:48/M
10 Sarah Nelson Santa Rosa CA 382 23 F 1 20-24 1:29:08.90 1:29:13.50 0:04.60 6:48/M
11 Ryan Smitchger Healdsburg CA 500 24 M 1 20-24 1:29:14.61 1:29:18.00 0:03.39 6:49/M
12 Oliverio Perez Rohnert Park CA 420 36 M 3 35-39 1:29:24.09 1:29:25.36 0:01.27 6:49/M
13 Allan Noble San Francisco CA 390 32 M 1 30-34 1:29:35.24 1:29:37.19 0:01.95 6:50/M
14 Eleanna Mendez Windsor CA 353 24 F 2 20-24 1:30:32.77 1:30:33.18 0:00.41 6:55/M
15 David Smith Napa CA 504 47 M 2 45-49 1:30:36.59 1:30:38.96 0:02.37 6:55/M
16 Aaron Gallo Windsor CA 188 30 M 2 30-34 1:30:44.70 1:30:45.68 0:00.98 6:56/M
17 Henry Verschell Brooklyn NY 566 35 M 4 35-39 1:31:36.94 1:31:38.05 0:01.11 7:00/M
18 Thomas Allen Santa Rosa CA 12 29 M 2 25-29 1:31:42.17 1:31:44.58 0:02.41 7:00/M
19 Jamie Martinez 608 36 M 5 35-39 1:31:57.72 1:32:11.48 0:13.76 7:01/M
20 Zachary McCutchen Stockton CA 338 25 M 3 25-29 1:32:22.75 1:32:24.60 0:01.85 7:03/M
21 Doug Wilson Healdsburg CA 609 48 M 3 45-49 1:32:23.81 1:32:26.04 0:02.23 7:03/M
22 James Liggett Santa Rosa CA 312 19 M 1 15-19 1:33:20.97 1:33:25.87 0:04.90 7:07/M
23 Tad Theiss Cloverdale CA 539 49 M 4 45-49 1:33:39.17 1:33:40.84 0:01.67 7:09/M
24 Timothy Roberts New York NY 450 36 M 6 35-39 1:33:46.05 1:34:06.65 0:20.60 7:09/M
25 Jieh Greeney New York NY 208 32 F 2 30-34 1:33:46.33 1:34:06.55 0:20.22 7:09/M
26 Patrick Temple Santa Rosa CA 537 51 M 1 50-54 1:34:04.68 1:34:07.53 0:02.85 7:11/M
27 Joel Vielma Windsor CA 567 28 M 4 25-29 1:34:16.37 1:34:18.48 0:02.11 7:12/M
28 Mitch Springer Cloverdale CA 518 26 M 5 25-29 1:34:31.27 1:34:35.61 0:04.34 7:13/M
29 Phill Murphy San Francisco CA 378 32 M 3 30-34 1:35:13.02 1:35:16.15 0:03.13 7:16/M
30 David Mitchell Santa Rosa CA 361 33 M 4 30-34 1:35:23.88 1:35:26.80 0:02.92 7:17/M
31 Robert Haley Windsor CA 215 49 M 5 45-49 1:36:22.43 1:36:24.05 0:01.62 7:21/M
32 Steve Cryer Rohnert Park CA 118 61 M 1 60-64 1:36:32.58 1:36:33.08 0:00.50 7:22/M
33 Jose Rosas Windsor CA 462 21 M 2 20-24 1:36:34.26 1:36:34.42 0:00.16 7:22/M
34 Brent Smith Healdsburg CA 502 51 M 2 50-54 1:36:38.20 1:36:40.79 0:02.59 7:23/M
35 Marco Zamora Santa Rosa CA 594 26 M 6 25-29 1:36:59.10 1:37:13.17 0:14.07 7:24/M
36 Stephen Kukta Vallejo CA 611 48 M 6 45-49 1:37:17.94 1:37:19.31 0:01.37 7:26/M
37 Tracy Pool Windsor CA 601 48 M 7 45-49 1:37:18.10 1:37:21.91 0:03.81 7:26/M
38 Robyn Parrish Santa Rosa CA 410 35 F 1 35-39 1:37:29.62 1:37:43.40 0:13.78 7:26/M
39 Abel Munoz Rohnert Park CA 377 44 M 3 40-44 1:37:34.84 1:37:41.90 0:07.06 7:27/M
40 Rob Paulson Windsor CA 413 46 M 8 45-49 1:37:43.46 1:37:46.74 0:03.28 7:28/M
41 Art Tomaszewski Windsor CA 552 48 M 9 45-49 1:38:12.83 1:38:18.80 0:05.97 7:30/M
42 Paul Sisson Rohnert Park CA 495 55 M 1 55-59 1:38:16.87 1:38:22.43 0:05.56 7:30/M
43 Matt Cogorno Windsor CA 95 18 M 2 15-19 1:38:21.01 1:38:21.11 0:00.10 7:30/M
44 Richard Bonitati Santa Rosa CA 603 51 M 3 50-54 1:38:25.25 1:38:27.71 0:02.46 7:31/M
45 Joseph Lin Rohnert Park CA 313 36 M 7 35-39 1:38:26.16 1:38:29.48 0:03.32 7:31/M
46 Christin Campbell Bozeman MT 75 32 F 3 30-34 1:38:52.36 1:38:54.85 0:02.49 7:33/M
47 Jose Zarco Santa Rosa CA 597 43 M 4 40-44 1:39:29.92 1:39:37.12 0:07.20 7:36/M
48 Gerardo Rosas Windsor CA 461 48 M 10 45-49 1:39:41.80 1:39:54.45 0:12.65 7:37/M
49 Carl Corbin Windsor CA 107 42 M 5 40-44 1:39:49.66 1:39:54.60 0:04.94 7:37/M
50 Jose Perez Windsor CA 419 42 M 6 40-44 1:39:57.99 1:40:08.43 0:10.44 7:38/M
51 Brent Fisher Santa Rosa CA 172 35 M 8 35-39 1:40:12.53 1:40:26.50 0:13.97 7:39/M
52 Andy Ramos Santa Rosa CA 438 46 M 11 45-49 1:40:46.63 1:40:49.72 0:03.09 7:42/M
53 Eileen Hosbein Petaluma CA 245 42 F 1 40-44 1:40:55.85 1:41:00.15 0:04.30 7:42/M
54 Marcus Stoiber Vallejo CA 527 26 M 7 25-29 1:40:59.51 1:41:19.39 0:19.88 7:43/M
55 Ryan Culley Santa Rosa CA 119 42 M 7 40-44 1:41:20.21 1:41:32.40 0:12.19 7:44/M
56 Sequoia Wright-Medina Santa Rosa CA 589 33 F 4 30-34 1:41:32.03 1:41:42.78 0:10.75 7:45/M
57 Matt Spence Windsor CA 514 27 M 8 25-29 1:41:55.68 1:42:05.45 0:09.77 7:47/M
58 Brian Ambrosini Santa Rosa CA 15 28 M 9 25-29 1:41:55.74 1:42:05.64 0:09.90 7:47/M
59 Tim Stephens Santa Rosa CA 520 33 M 5 30-34 1:42:04.91 1:42:12.89 0:07.98 7:47/M
60 Kathleen H Kennedy Windsor CA 280 47 F 2 45-49 1:42:04.97 1:42:12.82 0:07.85 7:47/M
61 Kassidy Poet Santa Rosa CA 426 28 F 2 25-29 1:42:18.52 1:42:31.93 0:13.41 7:49/M
62 Caroline Temmins Menlo Park CA 536 39 F 2 35-39 1:42:36.66 1:42:36.66 7:50/M
63 Rebecca Blum San Francisco CA 44 39 F 3 35-39 1:42:42.44 1:43:17.97 0:35.53 7:50/M
64 Anita Crowley Windsor CA 116 45 F 3 45-49 1:43:11.05 1:43:14.31 0:03.26 7:53/M
65 Nicky Sorgman Santa Rosa CA 511 28 M 10 25-29 1:43:28.50 1:43:34.76 0:06.26 7:54/M
66 Nina Dolcini Petaluma CA 139 28 F 3 25-29 1:43:47.49 1:43:48.49 0:01.00 7:55/M
67 Shelli Kramer Petaluma CA 289 47 F 4 45-49 1:44:02.75 1:44:08.72 0:05.97 7:56/M
68 Megan Buffalo Kelseyville CA 62 31 F 5 30-34 1:44:12.62 1:44:21.67 0:09.05 7:57/M
69 Gail Leland Redwood Valley CA 305 62 F 1 60-64 1:44:29.40 1:44:36.52 0:07.12 7:59/M
70 Jeanine Gugel Healdsburg CA 210 18 F 1 15-19 1:44:30.13 1:44:34.64 0:04.51 7:59/M
71 Nick Abbott Santa Rosa CA 2 35 M 9 35-39 1:44:50.44 1:45:05.51 0:15.07 8:00/M
72 Amanda Gallegos San Francisco CA 187 23 F 3 20-24 1:44:56.06 1:44:59.80 0:03.74 8:01/M
73 Emil Shieh Santa Rosa CA 490 45 M 12 45-49 1:45:07.95 1:45:11.01 0:03.06 8:01/M
74 Bill Overend Greenbrae CA 400 44 M 8 40-44 1:45:10.48 1:45:17.24 0:06.76 8:02/M
75 Karen Chequer-Pfeiffer Windsor CA 88 55 F 1 55-59 1:45:11.08 1:45:17.34 0:06.26 8:02/M
76 Jason Cruces Vacaville CA 117 43 M 9 40-44 1:45:15.05 1:45:25.03 0:09.98 8:02/M
77 Heather Stetson Hidden Valley Lake CA 522 31 F 6 30-34 1:45:26.97 1:45:35.95 0:08.98 8:03/M
78 Lisa Cantrell Santa Rosa CA 77 39 F 4 35-39 1:45:30.35 1:49:22.86 3:52.51 8:03/M
79 Martha A Mendoza San Leandro CA 354 39 F 5 35-39 1:45:35.27 1:45:41.92 0:06.65 8:04/M
80 Ian MacAllister Novato CA 324 36 M 10 35-39 1:45:36.36 1:45:59.15 0:22.79 8:04/M
81 Dave Adams Los Gatos CA 5 43 M 10 40-44 1:45:56.26 1:45:59.80 0:03.54 8:05/M
82 Nicole Shinkwin San Diego CA 491 28 F 4 25-29 1:45:59.54 1:46:13.43 0:13.89 8:05/M
83 Birgit Sacher Santa Rosa CA 472 41 F 2 40-44 1:46:20.22 1:46:21.18 0:00.96 8:07/M
84 Alan Flores Santa Rosa CA 173 22 M 3 20-24 1:46:22.87 1:46:26.69 0:03.82 8:07/M
85 Sarah Cope Cupertino CA 106 36 F 6 35-39 1:46:23.69 1:46:32.22 0:08.53 8:07/M
86 Kevin Cope Cupertino CA 105 34 M 6 30-34 1:46:23.83 1:46:32.22 0:08.39 8:07/M
87 Kris Matteri Windsor CA 334 47 F 5 45-49 1:46:24.23 1:46:31.54 0:07.31 8:07/M
88 Hardik Patel Santa Rosa CA 411 35 M 11 35-39 1:46:25.36 1:46:34.63 0:09.27 8:07/M
89 Jack Yaeger Windsor CA 590 15 M 3 15-19 1:46:26.70 1:46:30.56 0:03.86 8:07/M
90 Cali Kent Santa Rosa CA 281 39 F 7 35-39 1:46:35.87 1:46:42.09 0:06.22 8:08/M
91 Charles Nelson Santa Rosa CA 616 51 M 4 50-54 1:46:41.71 1:46:46.65 0:04.94 8:09/M
92 Michael Quigley Santa Rosa CA 433 61 M 2 60-64 1:46:47.00 1:46:50.41 0:03.41 8:09/M
93 Heather Harris Santa Rosa CA 614 34 F 7 30-34 1:47:08.28 1:47:14.81 0:06.53 8:11/M
94 Rachel Adams Santa Rosa CA 7 32 F 8 30-34 1:47:15.73 1:47:15.73 8:11/M
95 Allison Delaney Windsor CA 131 35 F 8 35-39 1:47:22.05 1:47:28.75 0:06.70 8:12/M
96 Jeanne Clark Redwood City CA 91 52 F 1 50-54 1:47:24.37 1:47:30.87 0:06.50 8:12/M
97 Carissa Krey Santa Rosa CA 291 33 F 9 30-34 1:47:26.28 1:47:33.83 0:07.55 8:12/M
98 Kevin Chapin Santa Rosa CA 85 33 M 7 30-34 1:47:45.02 1:47:49.62 0:04.60 8:14/M
99 Brienna Sleeman Healdsburg CA 496 30 F 10 30-34 1:47:52.34 1:47:58.64 0:06.30 8:14/M
100 Nicole Dorris Windsor CA 143 36 F 9 35-39 1:48:05.97 1:48:16.47 0:10.50 8:15/M
 
Place Name City Bib No Age Gender Age Group Chip Time Gun Time Chip Diff Pace
101 Vincent Madison Ukiah CA 328 70 M 1 70-99 1:48:06.91 1:48:12.54 0:05.63 8:15/M
102 Matthias Mede Santa Rosa CA 349 56 M 2 55-59 1:48:08.19 1:48:14.08 0:05.89 8:15/M
103 Matt Villano Healdsburg CA 569 37 M 12 35-39 1:48:38.81 1:48:51.45 0:12.64 8:18/M
104 Trent Dondero San Francisco CA 140 23 M 4 20-24 1:48:51.14 1:48:59.29 0:08.15 8:19/M
105 Leasa Graves Santa Rosa CA 622 36 F 10 35-39 1:48:52.60 1:48:52.60 8:19/M
106 Rachel MacKey Windsor CA 326 29 F 5 25-29 1:49:10.15 1:49:24.49 0:14.34 8:20/M
107 Thor Shattuck Petaluma CA 489 44 M 11 40-44 1:49:18.91 1:49:32.29 0:13.38 8:21/M
108 James Prosser Santa Rosa CA 431 45 M 13 45-49 1:49:19.56 1:49:32.39 0:12.83 8:21/M
109 Jonathan Dear Sacramento CA 128 32 M 8 30-34 1:49:19.83 1:49:26.72 0:06.89 8:21/M
110 Zac Overbay Santa Rosa CA 399 43 M 12 40-44 1:49:20.36 1:49:32.62 0:12.26 8:21/M
111 Vladimir Strugatsky Sebastopol CA 529 45 M 14 45-49 1:49:30.40 1:49:43.61 0:13.21 8:22/M
112 Felipe Guerrero Cotati CA 600 30 M 9 30-34 1:49:35.91 1:49:43.49 0:07.58 8:22/M
113 Alena Cook Santa Rosa CA 104 28 F 6 25-29 1:49:55.39 1:50:07.66 0:12.27 8:23/M
114 Maria-Antonia Robertson Petaluma CA 451 42 F 3 40-44 1:50:06.47 1:50:20.39 0:13.92 8:24/M
115 Kirstie Anderson Santa Rosa CA 17 34 F 11 30-34 1:50:10.38 1:50:23.44 0:13.06 8:25/M
116 Brittany Nikol Windsor CA 389 31 F 12 30-34 1:50:13.77 1:50:36.33 0:22.56 8:25/M
117 Sean McFarland Santa Rosa CA 339 36 M 13 35-39 1:50:38.59 1:50:48.05 0:09.46 8:27/M
118 Anne Henderson Windsor CA 230 43 F 4 40-44 1:50:49.02 1:50:56.34 0:07.32 8:28/M
119 Jill Wallace Windsor CA 577 34 F 13 30-34 1:50:50.38 1:51:04.61 0:14.23 8:28/M
120 Greg Robles Rohnert Park CA 453 49 M 15 45-49 1:50:58.69 1:51:45.25 0:46.56 8:28/M
121 Carlos Ortegon Spring TX 397 49 M 16 45-49 1:51:02.38 1:51:21.42 0:19.04 8:29/M
122 Benjamin Fouts Santa Rosa CA 179 42 M 13 40-44 1:51:18.02 1:51:35.72 0:17.70 8:30/M
123 Lon Tran Santa Rosa CA 557 33 F 14 30-34 1:51:42.04 1:51:54.47 0:12.43 8:32/M
124 Greg Tunzi Santa Rosa CA 559 29 M 11 25-29 1:51:50.40 1:51:54.26 0:03.86 8:32/M
125 Jason Briggs Petaluma CA 51 43 M 14 40-44 1:51:52.79 1:51:57.72 0:04.93 8:32/M
126 Kim Kinahan Santa Rosa CA 283 46 F 6 45-49 1:51:55.15 1:52:03.89 0:08.74 8:33/M
127 Doug Lyons Windsor CA 322 42 M 15 40-44 1:52:15.49 1:54:22.05 2:06.56 8:34/M
128 Lara Garren Rohnert Park CA 195 27 F 7 25-29 1:52:18.72 1:52:18.72 8:34/M
129 Laura Adair Windsor CA 4 34 F 15 30-34 1:52:30.19 1:52:51.34 0:21.15 8:35/M
130 Eddy Hansen Petaluma CA 221 42 M 16 40-44 1:52:37.93 1:52:52.19 0:14.26 8:36/M
131 Jeffrey Jones Petaluma CA 270 37 M 14 35-39 1:52:46.89 1:53:03.26 0:16.37 8:36/M
132 Jon Lyons Citrus Heights CA 323 31 M 10 30-34 1:52:49.96 1:53:05.06 0:15.10 8:37/M
133 Diego Garcia Healdsburg CA 191 13 M 1 10-14 1:52:50.49 1:53:00.07 0:09.58 8:37/M
134 Jason Walker Portland OR 575 32 M 11 30-34 1:52:52.49 1:53:14.88 0:22.39 8:37/M
135 Lindsay Ingram Santa Rosa CA 255 30 F 16 30-34 1:53:00.94 1:53:08.46 0:07.52 8:38/M
136 Juan Estrada Windsor CA 161 45 M 17 45-49 1:53:04.83 1:53:10.72 0:05.89 8:38/M
137 David Mounts Windsor CA 372 39 M 15 35-39 1:53:13.31 1:53:25.32 0:12.01 8:39/M
138 Davd Abbott Santa Rosa CA 1 52 M 5 50-54 1:53:13.59 1:53:28.17 0:14.58 8:39/M
139 Matt Wilson Santa Rosa CA 582 30 M 12 30-34 1:53:14.71 1:53:26.51 0:11.80 8:39/M
140 Sandra Patinas Santa Rosa CA 605 34 F 17 30-34 1:53:18.39 1:53:57.29 0:38.90 8:39/M
141 Rufino Rosas Jr Windsor CA 463 38 M 16 35-39 1:53:25.08 1:53:48.79 0:23.71 8:39/M
142 Jessica Borri-Robledo Santa Rosa CA 48 33 F 18 30-34 1:53:27.17 1:54:14.41 0:47.24 8:40/M
143 Vince Viloria Sacramento CA 570 35 M 17 35-39 1:53:31.76 1:53:46.69 0:14.93 8:40/M
144 Kim Burton Windsor CA 69 34 F 19 30-34 1:53:42.72 1:53:55.96 0:13.24 8:41/M
145 Corey Phipps Forestville CA 424 41 M 17 40-44 1:53:47.20 1:53:56.91 0:09.71 8:41/M
146 Darren Reyes Rohnert Park CA 446 43 M 18 40-44 1:53:47.50 1:54:00.05 0:12.55 8:41/M
147 Danielle Colborn San Francisco CA 96 35 F 11 35-39 1:53:52.70 1:54:08.79 0:16.09 8:42/M
148 Michelle Regan Santa Rosa CA 443 59 F 2 55-59 1:54:02.57 1:54:12.72 0:10.15 8:42/M
149 Angelina Thayer Santa Rosa CA 538 35 F 12 35-39 1:54:12.03 1:54:23.54 0:11.51 8:43/M
150 Adele Panasci Dublin CO 408 26 F 8 25-29 1:54:12.85 1:54:53.81 0:40.96 8:43/M
151 Brandon Rowley Lafayette CA 467 36 M 18 35-39 1:54:27.47 1:54:51.51 0:24.04 8:44/M
152 Adam Barrios Woodland CA 30 34 M 13 30-34 1:54:29.34 1:54:41.41 0:12.07 8:44/M
153 Kath McWhorter Bakersfield CA 612 46 F 7 45-49 1:54:34.13 1:54:49.73 0:15.60 8:45/M
154 Michael Bryant East Palo Alto CA 61 26 M 12 25-29 1:54:43.69 1:55:10.53 0:26.84 8:45/M
155 Michael Balasek Santa Rosa CA 25 28 M 13 25-29 1:54:45.99 1:54:47.46 0:01.47 8:46/M
156 Ricky Zamora Windsor CA 596 14 M 2 10-14 1:55:01.11 1:55:12.11 0:11.00 8:47/M
157 Michael Remak Novato CA 444 37 M 19 35-39 1:55:07.86 1:55:30.53 0:22.67 8:47/M
158 Laura Giebink San Francisco CA 199 28 F 9 25-29 1:55:12.25 1:55:25.57 0:13.32 8:48/M
159 Mike Scannell Petaluma CA 478 53 M 6 50-54 1:55:16.26 1:55:40.14 0:23.88 8:48/M
160 Josh Wolcott Santa Rosa CA 607 35 M 20 35-39 1:55:17.26 1:55:26.53 0:09.27 8:48/M
161 Zulema Collazo Walnut Creek CA 97 34 F 20 30-34 1:55:22.35 1:55:51.58 0:29.23 8:48/M
162 Tamal Wonnell Rocklin CA 585 38 F 13 35-39 1:55:46.84 1:56:10.85 0:24.01 8:50/M
163 Greg Stocker Windsor CA 621 39 M 21 35-39 1:56:02.03 1:56:02.03 8:51/M
164 Shannon Todd Windsor CA 549 36 F 14 35-39 1:56:09.58 1:56:24.53 0:14.95 8:52/M
165 Amy Stevens Sebastopol CA 523 51 F 2 50-54 1:56:23.68 1:56:25.80 0:02.12 8:53/M
166 Rod Matteri Windsor CA 335 46 M 18 45-49 1:56:37.38 1:56:50.07 0:12.69 8:54/M
167 Jordan Matteri Windsor CA 333 18 F 2 15-19 1:56:37.42 1:56:50.10 0:12.68 8:54/M
168 Kevin Glover Windsor CA 203 33 M 14 30-34 1:57:04.24 2:00:59.32 3:55.08 8:56/M
169 Joe Blum San Francisco CA 610 33 M 15 30-34 1:57:05.63 1:57:47.89 0:42.26 8:56/M
170 Peter Hagen Copperopolis CA 214 59 M 3 55-59 1:57:11.63 1:57:36.27 0:24.64 8:57/M
171 Loren Wipff Fouts Santa Rosa CA 583 42 F 5 40-44 1:57:15.95 1:57:34.36 0:18.41 8:57/M
172 Melinda Kamariotis Santa Rosa CA 272 41 F 6 40-44 1:57:19.09 1:57:30.19 0:11.10 8:57/M
173 Ashley Fehrmann Santa Rosa CA 164 29 F 10 25-29 1:57:22.91 1:57:26.20 0:03.29 8:58/M
174 Scott Kozel Healdsburg CA 288 45 M 19 45-49 1:57:23.62 1:57:49.27 0:25.65 8:58/M
175 Danna Rocca Petaluma CA 454 44 F 7 40-44 1:57:30.00 1:57:44.93 0:14.93 8:58/M
176 Gwen Beacham Santa Rosa CA 36 46 F 8 45-49 1:57:36.77 1:57:52.48 0:15.71 8:59/M
177 Sally Connell Santa Rosa CA 102 48 F 9 45-49 1:57:40.95 1:57:48.97 0:08.02 8:59/M
178 Aida Causevic-Mendelson San Francisco CA 84 30 F 21 30-34 1:57:49.78 1:58:10.29 0:20.51 9:00/M
179 Ben Wallo Yorkville CA 613 22 M 5 20-24 1:57:56.10 1:58:35.59 0:39.49 9:00/M
180 Dawn Otis-Drowne Vacaville CA 398 43 F 8 40-44 1:58:00.36 1:58:10.25 0:09.89 9:00/M
181 Jonathan Heim Auburn CA 229 48 M 20 45-49 1:58:00.58 1:58:24.22 0:23.64 9:00/M
182 Jessica Corcoran Windsor CA 108 42 F 9 40-44 1:58:01.20 1:58:13.12 0:11.92 9:01/M
183 Nate Coogan Santa Rosa CA 103 35 M 22 35-39 1:58:01.55 1:58:10.59 0:09.04 9:01/M
184 Donna Langfield Redding CA 295 48 F 10 45-49 1:58:04.67 1:58:48.75 0:44.08 9:01/M
185 Rachael Sullens Santa Rosa CA 530 37 F 15 35-39 1:58:19.99 1:58:28.40 0:08.41 9:02/M
186 William Check Fort Lauderdale FL 87 69 M 1 65-69 1:58:27.74 1:58:35.57 0:07.83 9:03/M
187 Catherine Eggleston Forestville CA 151 29 F 11 25-29 1:58:32.67 1:58:54.79 0:22.12 9:03/M
188 Mary Haynes Santa Rosa CA 599 33 F 22 30-34 1:58:35.16 1:59:10.61 0:35.45 9:03/M
189 Richard Forehand Sacramento CA 176 66 M 2 65-69 1:58:36.66 1:59:00.51 0:23.85 9:03/M
190 Lisa Lawley Alameda CA 300 49 F 11 45-49 1:58:37.41 1:58:45.82 0:08.41 9:03/M
191 Annika Rasmuson Sebastopol CA 440 23 F 4 20-24 1:58:37.97 1:58:52.26 0:14.29 9:03/M
192 Chris Pallatroni Oakland CA 406 32 M 16 30-34 1:58:39.37 1:59:09.91 0:30.54 9:03/M
193 Ann Leoni The Woodlands TX 310 52 F 3 50-54 1:58:45.56 1:59:04.46 0:18.90 9:04/M
194 Janet Perrone Windsor CA 421 47 F 12 45-49 1:58:47.00 1:58:47.00 9:04/M
195 Michael Barnard Windsor CA 27 45 M 21 45-49 1:58:55.05 1:59:08.48 0:13.43 9:05/M
196 Zachary Uchytil Windsor CA 560 17 M 4 15-19 1:58:57.26 1:59:02.24 0:04.98 9:05/M
197 Shane Penland Santa Rosa CA 417 45 M 22 45-49 1:59:07.84 1:59:09.40 0:01.56 9:06/M
198 Ronnie Desoto Ukiah CA 135 43 M 19 40-44 1:59:11.99 1:59:12.52 0:00.53 9:06/M
199 Glenn Hoffman Novato CA 238 52 M 7 50-54 1:59:28.44 1:59:37.01 0:08.57 9:07/M
200 David Lundie Mckinleyville CA 320 33 M 17 30-34 1:59:37.59 1:59:48.58 0:10.99 9:08/M
 
Place Name City Bib No Age Gender Age Group Chip Time Gun Time Chip Diff Pace
201 Kelly Bastoni Santa Rosa CA 34 42 F 10 40-44 1:59:45.71 1:59:56.89 0:11.18 9:08/M
202 Anne Thompson Sacramento CA 540 49 F 13 45-49 1:59:52.89 2:00:16.11 0:23.22 9:09/M
203 Nicole Cutshaw Antioch CA 120 32 F 23 30-34 1:59:53.09 2:00:08.56 0:15.47 9:09/M
204 Melanie Lentz Glendora CA 308 28 F 12 25-29 1:59:54.30 2:00:10.35 0:16.05 9:09/M
205 Kevin Smart Santa Rosa CA 497 46 M 23 45-49 2:00:03.53 2:00:04.75 0:01.22 9:10/M
206 Alexandria Stewart Woodland CA 524 25 F 13 25-29 2:00:20.69 2:00:49.87 0:29.18 9:11/M
207 Mattie Cancino Santa Rosa CA 76 39 F 16 35-39 2:00:23.93 2:00:55.20 0:31.27 9:11/M
208 Lexie Pence Santa Rosa CA 416 28 F 14 25-29 2:00:27.86 2:00:52.38 0:24.52 9:12/M
209 Kelly Ridgway Ukiah CA 619 27 F 15 25-29 2:00:34.24 2:00:48.88 0:14.64 9:12/M
210 Diana Mendez Windsor CA 352 27 F 16 25-29 2:00:41.47 2:01:03.49 0:22.02 9:13/M
211 Heather Johnson Lower Lake CA 268 28 F 17 25-29 2:00:45.22 2:01:11.97 0:26.75 9:13/M
212 Kristin Hilger Santa Rosa CA 236 33 F 24 30-34 2:01:03.88 2:01:17.00 0:13.12 9:14/M
213 Carrie Thompson Santa Rosa CA 541 49 F 14 45-49 2:01:09.89 2:01:26.46 0:16.57 9:15/M
214 Randall Brown Clearlake Oaks CA 55 47 M 24 45-49 2:01:10.80 2:01:10.80 9:15/M
215 Gema Hess Tucson AZ 235 51 F 4 50-54 2:01:17.63 2:01:27.06 0:09.43 9:15/M
216 Cindy Toms Santa Rosa CA 553 32 F 25 30-34 2:01:22.92 2:01:46.29 0:23.37 9:16/M
217 David Douglas Santa Rosa CA 144 39 M 23 35-39 2:01:27.00 2:01:48.48 0:21.48 9:16/M
218 Eric Cabalo Windsor CA 70 40 M 20 40-44 2:01:27.32 2:02:09.87 0:42.55 9:16/M
219 Jason Homan Windsor CA 241 33 M 18 30-34 2:01:30.41 2:01:35.37 0:04.96 9:16/M
220 Grete Hansen Petaluma CA 222 35 F 17 35-39 2:01:40.17 2:01:57.96 0:17.79 9:17/M
221 Marlin Halim Berkeley CA 216 34 F 26 30-34 2:01:45.60 2:02:22.02 0:36.42 9:18/M
222 Manuel Figueroa Windsor CA 167 49 M 25 45-49 2:01:51.15 2:02:01.56 0:10.41 9:18/M
223 Alan Finnie Windsor CA 170 34 M 19 30-34 2:01:57.49 2:02:13.23 0:15.74 9:19/M
224 Jenna Burchett Cloverdale CA 64 38 F 18 35-39 2:02:00.62 2:02:48.04 0:47.42 9:19/M
225 Frank Woomer Cloverdale CA 588 67 M 3 65-69 2:02:02.63 2:02:23.49 0:20.86 9:19/M
226 Erin Rock Rohnert Park CA 456 26 F 18 25-29 2:02:05.74 2:02:39.36 0:33.62 9:19/M
227 Bret Edgerton Healdsburg CA 148 42 M 21 40-44 2:02:10.86 2:02:25.76 0:14.90 9:20/M
228 Katherine Russell Brentwood CA 468 47 F 15 45-49 2:02:12.90 2:02:12.90 9:20/M
229 Neal Buren Windsor CA 65 50 M 8 50-54 2:02:13.72 2:02:35.32 0:21.60 9:20/M
230 Jennifer Sievers Windsor CA 493 38 F 19 35-39 2:02:13.79 2:02:31.40 0:17.61 9:20/M
231 Jennifer Smedshammer Petaluma CA 498 45 F 16 45-49 2:02:14.81 2:02:34.30 0:19.49 9:20/M
232 Brent Black Windsor CA 43 46 M 26 45-49 2:02:18.30 2:02:40.74 0:22.44 9:20/M
233 Chi Hay Cheung Santa Rosa CA 89 35 M 24 35-39 2:02:19.20 2:02:38.21 0:19.01 9:20/M
234 Greg Dinneen Hermosa Beach CA 137 47 M 27 45-49 2:02:19.63 2:02:41.55 0:21.92 9:20/M
235 Bryan Long Santa Rosa CA 315 54 M 9 50-54 2:02:29.68 2:02:57.98 0:28.30 9:21/M
236 Lyanne Schuster Ca CA 483 55 F 3 55-59 2:02:33.33 2:03:02.47 0:29.14 9:21/M
237 Venessa Howard Petaluma CA 248 37 F 20 35-39 2:03:00.36 2:03:18.70 0:18.34 9:23/M
238 Jen Dunning Santa Rosa CA 145 38 F 21 35-39 2:03:12.74 2:03:29.94 0:17.20 9:24/M
239 Matthew Rykels Sunnyvale CA 471 31 M 20 30-34 2:03:14.69 2:03:35.62 0:20.93 9:24/M
240 Emma Harrell El Sobrante CA 225 32 F 27 30-34 2:03:15.52 2:03:32.48 0:16.96 9:25/M
241 Shannon Percell Santa Rosa CA 418 34 F 28 30-34 2:03:28.55 2:03:53.27 0:24.72 9:25/M
242 Jonathan Todd Windsor CA 548 29 M 14 25-29 2:03:29.30 2:03:59.28 0:29.98 9:26/M
243 Kim Weaver Santa Rosa CA 579 45 F 17 45-49 2:04:10.56 2:04:38.81 0:28.25 9:29/M
244 Kirt Demichiel Sonoma CA 134 45 M 28 45-49 2:04:11.29 2:04:32.26 0:20.97 9:29/M
245 Benjamin Bryant Santa Rosa CA 59 26 M 15 25-29 2:04:12.51 2:04:39.68 0:27.17 9:29/M
246 Jillian Bryant Santa Rosa CA 60 26 M 16 25-29 2:04:13.19 2:04:40.01 0:26.82 9:29/M
247 Elizabeth Walker Portland OR 574 30 F 29 30-34 2:04:20.72 2:04:41.71 0:20.99 9:29/M
248 Alene Seward Santa Rosa CA 487 31 F 30 30-34 2:04:21.36 2:04:29.28 0:07.92 9:30/M
249 Eliza Carrington Santa Rosa CA 81 38 F 22 35-39 2:04:26.96 2:04:33.08 0:06.12 9:30/M
250 Shastl Andre Windsor CA 20 40 F 11 40-44 2:04:29.98 2:04:32.06 0:02.08 9:30/M
251 Robert Nieto Rohnert Park CA 387 37 M 25 35-39 2:04:41.74 2:04:53.13 0:11.39 9:31/M
252 Tara Nieto Rohnert Park CA 388 33 F 31 30-34 2:04:42.65 2:04:53.39 0:10.74 9:31/M
253 Scott McIntosh Santa Rosa CA 343 36 M 26 35-39 2:04:43.98 2:05:05.93 0:21.95 9:31/M
254 Rodney Montoya Windsor CA 615 34 M 21 30-34 2:04:49.97 2:05:31.81 0:41.84 9:32/M
255 Dean Katzung Windsor CA 277 43 M 22 40-44 2:04:51.19 2:05:18.81 0:27.62 9:32/M
256 Sherrese Mikell Santa Rosa CA 357 39 F 23 35-39 2:04:51.48 2:05:31.35 0:39.87 9:32/M
257 Kim Lacock Petaluma CA 292 46 F 18 45-49 2:04:51.88 2:05:06.95 0:15.07 9:32/M
258 Joanna Jeremy Oakley CA 263 32 F 32 30-34 2:04:56.67 2:05:15.21 0:18.54 9:32/M
259 Abigail Karcz Santa Rosa CA 273 27 F 19 25-29 2:05:06.35 2:05:19.53 0:13.18 9:33/M
260 Charlene Hubbard Petaluma CA 249 49 F 19 45-49 2:05:09.01 2:05:31.97 0:22.96 9:33/M
261 Michael Pallatroni Santa Rosa CA 407 56 M 4 55-59 2:05:12.75 2:05:44.51 0:31.76 9:33/M
262 Glen Torbert Santa Rosa CA 554 40 M 23 40-44 2:05:27.26 2:05:46.17 0:18.91 9:35/M
263 Marie Young Santa Rosa CA 592 46 F 20 45-49 2:05:46.60 2:05:54.94 0:08.34 9:36/M
264 Kimberlee Smith Elk Grove CA 506 33 F 33 30-34 2:05:53.12 2:06:10.32 0:17.20 9:37/M
265 Matthew MacKenzie Novato CA 325 53 M 10 50-54 2:05:53.72 2:06:26.38 0:32.66 9:37/M
266 Arielle Parker Santa Rosa CA 409 22 F 5 20-24 2:05:55.81 2:06:10.34 0:14.53 9:37/M
267 Laura Raffo Santa Rosa CA 435 22 F 6 20-24 2:05:57.12 2:06:05.91 0:08.79 9:37/M
268 Angela Johnson Santa Rosa CA 266 48 F 21 45-49 2:05:57.34 2:06:06.15 0:08.81 9:37/M
269 Brandi Smith Santa Rosa CA 501 37 F 24 35-39 2:06:06.27 2:06:37.23 0:30.96 9:38/M
270 Jennifer Rota Windsor CA 466 37 F 25 35-39 2:06:15.02 2:06:46.64 0:31.62 9:38/M
271 Ruben Garcia Antelope CA 193 30 M 22 30-34 2:06:16.88 2:06:28.70 0:11.82 9:38/M
272 Marshall Cosby Antioch CA 109 55 M 5 55-59 2:06:20.71 2:06:56.01 0:35.30 9:39/M
273 Kazuaki Takano Santa Rosa CA 532 61 M 3 60-64 2:06:25.97 2:06:46.02 0:20.05 9:39/M
274 Clare Moore Santa Rosa CA 364 36 F 26 35-39 2:06:30.96 2:07:10.34 0:39.38 9:39/M
275 Guillaume Hoareau Davis CA 237 28 M 17 25-29 2:06:54.34 2:07:13.43 0:19.09 9:41/M
276 Rebecca Hartsfield Windsor CA 226 33 F 34 30-34 2:06:54.43 2:07:17.11 0:22.68 9:41/M
277 Joey Tuchy Sebastopol CA 558 25 F 20 25-29 2:06:56.26 2:07:19.04 0:22.78 9:41/M
278 Christopher Bornmann Santa Rosa CA 47 42 M 24 40-44 2:07:17.26 2:07:52.43 0:35.17 9:43/M
279 Elaine Ganino Windsor CA 189 43 F 12 40-44 2:07:17.37 2:07:30.16 0:12.79 9:43/M
280 Robert Leavitt Sebastopol CA 301 47 M 29 45-49 2:07:22.88 2:07:34.07 0:11.19 9:43/M
281 Christina Gill Windsor CA 201 49 F 22 45-49 2:07:27.44 2:07:53.16 0:25.72 9:44/M
282 Cheri Scannell Petaluma CA 477 58 F 4 55-59 2:07:40.84 2:08:04.12 0:23.28 9:45/M
283 Taylor Buffo Windsor CA 63 19 F 3 15-19 2:07:42.84 2:07:47.34 0:04.50 9:45/M
284 Nanette Anderson Windsor CA 18 41 F 13 40-44 2:07:56.05 2:08:27.38 0:31.33 9:46/M
285 Karen Latiker Santa Rosa CA 298 35 F 27 35-39 2:08:04.49 2:08:14.74 0:10.25 9:47/M
286 Caroline Gonsalves Windsor CA 204 47 F 23 45-49 2:08:09.88 2:08:38.03 0:28.15 9:47/M
287 Jessica Doohan Santa Rosa CA 141 22 F 7 20-24 2:08:10.39 2:08:38.95 0:28.56 9:47/M
288 Eric Elam Pleasanton CA 155 43 M 25 40-44 2:08:17.44 2:08:41.94 0:24.50 9:48/M
289 Carla Campbell Santa Rosa CA 74 32 F 35 30-34 2:08:18.70 2:09:05.38 0:46.68 9:48/M
290 Ross Stivison Rohnert Park CA 525 34 M 23 30-34 2:08:19.79 2:08:55.53 0:35.74 9:48/M
291 Jamie Reed Santa Rosa CA 441 30 M 24 30-34 2:08:26.70 2:08:50.87 0:24.17 9:48/M
292 Marcy Bravo Windsor CA 50 37 F 28 35-39 2:08:32.41 2:12:27.28 3:54.87 9:49/M
293 Christine Purzycki Concord CA 432 45 F 24 45-49 2:08:35.27 2:09:04.72 0:29.45 9:49/M
294 Diane Olson Petaluma CA 396 49 F 25 45-49 2:08:36.04 2:08:51.54 0:15.50 9:49/M
295 Elsa Garcia Napa CA 192 49 F 26 45-49 2:09:01.55 2:09:15.91 0:14.36 9:51/M
296 Veronica Oxford Oakley CA 401 28 F 21 25-29 2:09:04.51 2:09:20.07 0:15.56 9:51/M
297 Linda Reed Santa Rosa CA 442 53 F 5 50-54 2:09:12.93 2:09:37.80 0:24.87 9:52/M
298 Megan Wood Petaluma CA 586 30 F 36 30-34 2:09:38.84 2:09:55.71 0:16.87 9:54/M
299 Jill Stokes Petaluma CA 528 37 F 29 35-39 2:09:39.19 2:09:55.59 0:16.40 9:54/M
300 Luke Barry Windsor CA 32 36 M 27 35-39 2:09:42.61 2:10:06.84 0:24.23 9:54/M
 
Place Name City Bib No Age Gender Age Group Chip Time Gun Time Chip Diff Pace
301 Steven Epstein Davis CA 159 34 M 25 30-34 2:09:50.59 2:09:57.44 0:06.85 9:55/M
302 Victor Garcia Santa Rosa CA 194 25 M 18 25-29 2:10:12.54 2:10:53.10 0:40.56 9:56/M
303 Amy McGee Windsor CA 340 47 F 27 45-49 2:10:12.76 2:10:49.12 0:36.36 9:56/M
304 Christopher Smith Santa Rosa CA 503 33 M 26 30-34 2:10:23.47 2:10:35.78 0:12.31 9:57/M
305 Donna Moriguchi Berkeley CA 368 50 F 6 50-54 2:10:38.39 2:15:05.79 4:27.40 9:58/M
306 Heather Herron-Libson Santa Rosa CA 234 50 F 7 50-54 2:10:38.99 2:15:06.06 4:27.07 9:58/M
307 Aisling Forbes San Bruno CA 174 27 F 22 25-29 2:10:39.67 2:11:13.43 0:33.76 9:58/M
308 Jasmine Dale Santa Rosa CA 122 26 F 23 25-29 2:10:57.06 2:11:38.49 0:41.43 10:00/M
309 Susan Alban San Francisco CA 11 31 F 37 30-34 2:11:05.22 2:11:25.71 0:20.49 10:00/M
310 Brittany Rykels Sunnyvale CA 470 27 F 24 25-29 2:11:30.11 2:11:51.74 0:21.63 10:02/M
311 Heather Kelley Geyserville CA 279 41 F 14 40-44 2:11:42.25 2:12:00.41 0:18.16 10:03/M
312 Sherry Hanson Napa CA 224 52 F 8 50-54 2:11:48.70 2:12:06.68 0:17.98 10:04/M
313 Alison Mokski Petaluma CA 363 48 F 28 45-49 2:11:55.74 2:12:05.92 0:10.18 10:04/M
314 Shannon Baker Santa Rosa CA 24 39 F 30 35-39 2:12:04.25 2:12:33.91 0:29.66 10:05/M
315 Stephan Boettcher Santa Clarita CA 46 25 M 19 25-29 2:12:05.32 2:12:35.34 0:30.02 10:05/M
316 Emily Boettcher Santa Clarita CA 45 26 F 25 25-29 2:12:05.32 2:12:35.56 0:30.24 10:05/M
317 Lisa Pedroni Healdsburg CA 414 48 F 29 45-49 2:12:17.45 2:13:00.15 0:42.70 10:06/M
318 Padraig Savage Santa Rosa CA 475 37 M 28 35-39 2:12:17.60 2:12:33.85 0:16.25 10:06/M
319 Alyssa Stoiber Vallejo CA 526 24 F 8 20-24 2:12:29.63 2:12:49.68 0:20.05 10:07/M
320 Adriana Vega Windsor CA 564 21 F 9 20-24 2:12:34.94 2:13:03.41 0:28.47 10:07/M
321 Sarah Ross Petaluma CA 465 32 F 38 30-34 2:12:40.85 2:13:12.72 0:31.87 10:08/M
322 William Thorn Santa Rosa CA 547 27 M 20 25-29 2:12:50.91 2:13:08.44 0:17.53 10:08/M
323 Jeremy McGovern Santa Rosa CA 602 31 M 27 30-34 2:12:58.94 2:13:16.11 0:17.17 10:09/M
324 Rebecca Admendares Santa Rosa CA 9 27 F 26 25-29 2:13:04.36 2:13:09.44 0:05.08 10:09/M
325 Michelle McHale Santa Rosa CA 342 55 F 5 55-59 2:13:15.97 2:13:22.94 0:06.97 10:10/M
326 Tami Eade Napa CA 146 41 F 15 40-44 2:13:16.35 2:13:49.28 0:32.93 10:10/M
327 Mario Pometta Santa Rosa CA 427 48 M 30 45-49 2:13:20.21 2:13:42.21 0:22.00 10:11/M
328 Susan Finch Folsom CA 168 51 F 9 50-54 2:13:29.15 2:13:51.79 0:22.64 10:11/M
329 Jess Lee Santa Rosa CA 303 34 M 28 30-34 2:13:41.39 2:13:50.88 0:09.49 10:12/M
330 Zachary Woodson Windsor CA 587 36 M 29 35-39 2:13:44.32 2:14:21.23 0:36.91 10:13/M
331 Del Malec Rohnert Park CA 329 59 M 6 55-59 2:13:50.34 2:14:15.90 0:25.56 10:13/M
332 Cathal McNamara Santa Rosa CA 347 39 M 30 35-39 2:13:56.89 2:14:33.53 0:36.64 10:13/M
333 Michael Houston Santa Rosa CA 246 48 M 31 45-49 2:13:58.35 2:14:25.28 0:26.93 10:14/M
334 David Kelley Geyserville CA 278 42 M 26 40-44 2:14:13.96 2:14:31.11 0:17.15 10:15/M
335 Allison Spitzer Santa Rosa CA 515 37 F 31 35-39 2:14:21.19 2:14:51.20 0:30.01 10:15/M
336 Heather Murray Santa Rosa CA 379 41 F 16 40-44 2:14:26.48 2:14:26.48 10:16/M
337 Laura Rodrigo Petaluma CA 457 36 F 32 35-39 2:14:36.05 2:14:42.28 0:06.23 10:16/M
338 Darin Tankersley Elk Grove CA 535 37 M 31 35-39 2:14:44.19 2:15:01.38 0:17.19 10:17/M
339 Rachel Aumann Palo Alto CA 22 31 F 39 30-34 2:14:57.60 2:15:21.15 0:23.55 10:18/M
340 Valerie Moran Windsor CA 367 41 F 17 40-44 2:15:16.95 2:15:51.45 0:34.50 10:20/M
341 Dave Gusmer Windsor CA 212 45 M 32 45-49 2:15:18.01 2:15:42.97 0:24.96 10:20/M
342 Garrett Broughton Cloverdale CA 52 40 M 27 40-44 2:15:39.86 2:16:06.43 0:26.57 10:21/M
343 Helen Coniglio Cloverdale CA 101 32 F 40 30-34 2:15:40.23 2:16:06.45 0:26.22 10:21/M
344 Cindy Haubold Larkspur CA 227 39 F 33 35-39 2:15:46.85 2:16:12.46 0:25.61 10:22/M
345 Aura Cardona Ssf CA 80 43 F 18 40-44 2:15:49.57 2:16:40.75 0:51.18 10:22/M
346 Shannon Tamayo Windsor CA 534 26 F 27 25-29 2:15:57.85 2:16:09.73 0:11.88 10:23/M
347 Emily Ash Santa Rosa CA 21 28 F 28 25-29 2:16:00.47 2:16:37.10 0:36.63 10:23/M
348 Noemi Zamora Windsor CA 595 32 F 41 30-34 2:16:04.91 2:16:45.29 0:40.38 10:23/M
349 Shana Friedman Santa Rosa CA 185 29 F 29 25-29 2:16:04.92 2:16:41.67 0:36.75 10:23/M
350 Stephanie Larson Windsor CA 296 53 F 10 50-54 2:16:05.45 2:16:28.77 0:23.32 10:23/M
351 Scott Webber American Canyon CA 580 44 M 28 40-44 2:16:19.98 2:16:41.11 0:21.13 10:24/M
352 John Fox Berkeley CA 181 50 M 11 50-54 2:16:34.89 2:17:07.96 0:33.07 10:25/M
353 Lisa Noble Wood Seal Beach CA 391 37 F 34 35-39 2:16:42.43 2:17:20.87 0:38.44 10:26/M
354 Aisah Alvarez Forestville CA 13 35 F 35 35-39 2:17:08.05 2:17:29.42 0:21.37 10:28/M
355 Yvette Valladares Healdsburg CA 562 33 F 42 30-34 2:17:08.10 2:17:29.28 0:21.18 10:28/M
356 Mandy Lee Santa Rosa CA 304 32 F 43 30-34 2:17:08.19 2:17:18.56 0:10.37 10:28/M
357 Lisa Kranz Santa Rosa CA 290 49 F 30 45-49 2:17:34.19 2:18:00.71 0:26.52 10:30/M
358 Annette Clement Port Hueneme CA 92 40 F 19 40-44 2:17:37.56 2:18:15.68 0:38.12 10:30/M
359 Amanda McGowan Sonoma CA 341 36 F 36 35-39 2:17:48.75 2:18:24.61 0:35.86 10:31/M
360 Mike Ogg Santa Rosa CA 393 34 M 29 30-34 2:17:50.55 2:18:24.37 0:33.82 10:31/M
361 Tiffany Bellize Geyserville CA 38 37 F 37 35-39 2:17:51.97 2:18:23.83 0:31.86 10:31/M
362 Mi Soon Hong Sunnyvale CA 242 46 F 31 45-49 2:17:53.51 2:18:31.58 0:38.07 10:32/M
363 Grace Yi Sacramento CA 591 29 F 30 25-29 2:18:01.72 2:18:34.11 0:32.39 10:32/M
364 Frank Leon Windsor CA 309 41 M 29 40-44 2:18:14.31 2:18:21.33 0:07.02 10:33/M
365 K Lebel Sacramento CA 302 45 F 32 45-49 2:18:19.73 2:18:45.01 0:25.28 10:34/M
366 Amy Talley Windsor CA 533 45 F 33 45-49 2:18:36.24 2:19:07.29 0:31.05 10:35/M
367 Donna Austin Martinez CA 23 45 F 34 45-49 2:19:04.52 2:19:43.64 0:39.12 10:37/M
368 Monika Reynolds Rohnert Park CA 447 35 F 38 35-39 2:19:05.06 2:19:23.50 0:18.44 10:37/M
369 Kathrine Lowry Rohnert Park CA 317 35 F 39 35-39 2:19:05.27 2:19:23.79 0:18.52 10:37/M
370 Charles Acken Windsor CA 3 45 M 33 45-49 2:19:13.85 2:19:42.93 0:29.08 10:38/M
371 Genevieve Bechtold Calistoga CA 37 29 F 31 25-29 2:19:17.94 2:19:42.86 0:24.92 10:38/M
372 Brian Cronin Santa Rosa CA 115 38 M 32 35-39 2:19:31.57 2:19:49.80 0:18.23 10:39/M
373 Edna Burgos Pleasant Hill CA 66 28 F 32 25-29 2:19:39.01 2:20:17.71 0:38.70 10:40/M
374 Alan Carstensen Dublin CA 82 60 M 4 60-64 2:19:52.64 2:20:27.37 0:34.73 10:41/M
375 Hardeep Gill Windsor CA 202 25 M 21 25-29 2:19:57.25 2:20:23.50 0:26.25 10:41/M
376 Nancy Isaac Rohnert Park CA 258 37 F 40 35-39 2:19:58.10 2:20:33.22 0:35.12 10:41/M
377 Cathy Thomson Santa Rosa CA 543 53 F 11 50-54 2:19:58.95 2:20:25.31 0:26.36 10:41/M
378 Mike Halvorsen Sana Rosa CA 218 52 M 12 50-54 2:19:59.54 2:20:25.79 0:26.25 10:41/M
379 Raj Patel Santa Rosa CA 412 62 M 5 60-64 2:20:00.91 2:20:25.58 0:24.67 10:41/M
380 Mark Laskey Windsor CA 297 49 M 34 45-49 2:20:03.55 2:20:22.67 0:19.12 10:41/M
381 Emily Robinett Mountain View CA 452 25 F 33 25-29 2:20:17.96 2:20:51.14 0:33.18 10:43/M
382 Carin Elam Pleasanton CA 154 42 F 20 40-44 2:20:22.77 2:20:48.06 0:25.29 10:43/M
383 Janet Mulligan Windsor CA 376 51 F 12 50-54 2:20:35.31 2:21:02.57 0:27.26 10:44/M
384 Barbara Johnson Penngrove CA 267 46 F 35 45-49 2:20:42.17 2:20:48.17 0:06.00 10:44/M
385 Liz Ellis Santa Rosa CA 157 51 F 13 50-54 2:20:42.91 2:21:12.76 0:29.85 10:44/M
386 Gretchen Ehnes Cotati CA 152 47 F 36 45-49 2:21:11.73 2:21:34.83 0:23.10 10:47/M
387 Carrie Barrios Woodland CA 31 33 F 44 30-34 2:21:22.79 2:21:51.05 0:28.26 10:47/M
388 Kimberly Lemons Rohnert Park CA 306 39 F 41 35-39 2:21:30.60 2:22:00.30 0:29.70 10:48/M
389 Jo Ellen Mosher Bakersfield CA 371 51 F 14 50-54 2:21:39.85 2:22:19.37 0:39.52 10:49/M
390 Sean Anderson Windsor CA 19 35 M 33 35-39 2:21:42.74 2:22:26.89 0:44.15 10:49/M
391 Judy James Cotati CA 261 54 F 15 50-54 2:21:43.69 2:22:12.56 0:28.87 10:49/M
392 Barb Netter Rohnert Park CA 383 58 F 6 55-59 2:21:46.68 2:22:14.76 0:28.08 10:49/M
393 Teresa Gilardoni Santa Rosa CA 200 55 F 7 55-59 2:21:53.95 2:22:02.19 0:08.24 10:50/M
394 Susanne Cochran Santa Rosa CA 94 51 F 16 50-54 2:22:05.95 2:22:19.60 0:13.65 10:51/M
395 Janin Comiskey Santa Rosa CA 100 38 F 42 35-39 2:22:10.53 2:22:40.56 0:30.03 10:51/M
396 Devin Savano Windsor CA 476 39 M 34 35-39 2:22:20.11 2:22:31.97 0:11.86 10:52/M
397 Pamee Collette Windsor CA 99 52 F 17 50-54 2:22:21.26 2:22:56.63 0:35.37 10:52/M
398 Christopher Collette Windsor CA 98 26 M 22 25-29 2:22:21.31 2:22:56.33 0:35.02 10:52/M
399 Elizabetn Rodriguez Stockton CA 458 53 F 18 50-54 2:22:34.69 2:23:17.81 0:43.12 10:53/M
400 Kimberlee Vigil Windsor CA 568 44 F 21 40-44 2:22:52.15 2:22:52.97 0:00.82 10:54/M
 
Place Name City Bib No Age Gender Age Group Chip Time Gun Time Chip Diff Pace
401 Whitney Bouchard Rocklin CA 49 25 F 34 25-29 2:23:03.62 2:23:36.08 0:32.46 10:55/M
402 Evelyn Mitchell Healdsburg CA 362 52 F 19 50-54 2:23:10.22 2:23:24.81 0:14.59 10:56/M
403 Marie Bertolone Santa Rosa CA 40 49 F 37 45-49 2:23:18.92 2:23:51.71 0:32.79 10:56/M
404 Karol Scheiner Windsor CA 480 49 F 38 45-49 2:23:32.87 2:24:10.27 0:37.40 10:57/M
405 Bradley Scheiner Windsor CA 479 17 M 5 15-19 2:23:33.36 2:24:10.59 0:37.23 10:57/M
406 Rod Von Der Schmidt Danville CA 571 62 M 6 60-64 2:23:53.56 2:24:28.23 0:34.67 10:59/M
407 Jodi Zamora Windsor CA 593 42 F 22 40-44 2:23:55.26 2:24:06.60 0:11.34 10:59/M
408 Barbara Ihde Santa Rosa CA 253 61 F 2 60-64 2:24:03.40 2:24:37.70 0:34.30 11:00/M
409 Diana Garcia Santa Rosa CA 190 51 F 20 50-54 2:24:04.97 2:24:35.82 0:30.85 11:00/M
410 Shannon Liddell Cloverdale CA 311 43 F 23 40-44 2:24:13.97 2:24:39.44 0:25.47 11:01/M
411 Leone Manni Forestville CA 330 51 F 21 50-54 2:24:17.16 2:24:42.50 0:25.34 11:01/M
412 Leslie Foster Santabrosa CA 177 50 F 22 50-54 2:24:20.11 2:24:46.77 0:26.66 11:01/M
413 Molly Binsreid Forestville CA 42 26 F 35 25-29 2:24:20.39 2:24:47.14 0:26.75 11:01/M
414 Lynette Egge Auburn CA 150 38 F 43 35-39 2:24:27.41 2:25:53.68 1:26.27 11:02/M
415 Tim Dorn Palo Alto CA 142 29 M 23 25-29 2:25:21.27 2:25:59.12 0:37.85 11:06/M
416 Matthew Demers Stanford CA 133 30 M 30 30-34 2:25:21.28 2:25:58.19 0:36.91 11:06/M
417 Jessica Lorman Sunnyvale CA 316 26 F 36 25-29 2:25:25.56 2:26:03.09 0:37.53 11:06/M
418 Saikat Pal Mountain View CA 404 34 M 31 30-34 2:25:26.01 2:26:03.21 0:37.20 11:06/M
419 Tracy O'Callaghan Santa Rosa CA 392 52 F 23 50-54 2:25:57.48 2:26:19.10 0:21.62 11:08/M
420 Matthew Delaney Windsor CA 132 33 M 32 30-34 2:25:58.28 2:26:16.31 0:18.03 11:09/M
421 Dennis Rutkowski Windsor CA 469 38 M 35 35-39 2:26:21.10 2:26:40.75 0:19.65 11:10/M
422 Jose Mena Petaluma CA 606 39 M 36 35-39 2:26:33.09 2:26:38.34 0:05.25 11:11/M
423 Set Soto San Jose CA 512 38 M 37 35-39 2:26:33.63 2:26:38.32 0:04.69 11:11/M
424 Michael Prescott Windsor CA 430 51 M 13 50-54 2:27:00.55 2:27:33.75 0:33.20 11:13/M
425 Alice Jobson Santa Rosa CA 264 34 F 45 30-34 2:27:03.77 2:27:42.66 0:38.89 11:14/M
426 Joy Prescott Windsor CA 429 43 F 24 40-44 2:27:26.07 2:28:00.90 0:34.83 11:15/M
427 Mariya Cree Santa Rosa CA 112 45 F 39 45-49 2:27:45.13 2:28:23.75 0:38.62 11:17/M
428 Shannon Griffith Santa Rosa CA 209 58 F 8 55-59 2:27:53.75 2:28:24.88 0:31.13 11:17/M
429 Delia Nieto Healdsburg CA 386 49 F 40 45-49 2:28:03.27 2:28:41.87 0:38.60 11:18/M
430 Christina Chavez Windsor CA 86 32 F 46 30-34 2:28:03.79 2:28:41.85 0:38.06 11:18/M
431 Scott Felice Huntley IL 166 33 M 33 30-34 2:28:07.86 2:28:50.96 0:43.10 11:18/M
432 Michael Rochelle Petaluma CA 455 37 M 38 35-39 2:28:08.34 2:28:24.90 0:16.56 11:18/M
433 Steven Klick Windsor CA 284 39 M 39 35-39 2:28:11.99 2:28:31.32 0:19.33 11:19/M
434 Michael Copriviza Cupertino CA 618 50 M 14 50-54 2:28:13.13 2:28:33.05 0:19.92 11:19/M
435 Natalie Barnard-Shovelain Napa CA 28 29 F 37 25-29 2:28:23.28 2:28:59.78 0:36.50 11:20/M
436 Christian Jackson Napa CA 259 29 M 24 25-29 2:28:23.66 2:29:00.16 0:36.50 11:20/M
437 Greg Barnard Chaska MN 26 56 M 7 55-59 2:28:23.80 2:28:59.82 0:36.02 11:20/M
438 Chris Crifasi Windsor CA 114 47 M 35 45-49 2:28:34.79 2:29:08.16 0:33.37 11:20/M
439 Lisa Navarrete Stockton CA 380 51 F 24 50-54 2:28:38.76 2:29:21.68 0:42.92 11:21/M
440 Sarah Sanabria Santa Rosa CA 474 36 F 44 35-39 2:28:44.67 2:29:05.31 0:20.64 11:21/M
441 Kirsten Morales Sacramento CA 365 37 F 45 35-39 2:28:45.12 2:29:05.50 0:20.38 11:21/M
442 Jennifer Meacham Santa Rosa CA 348 39 F 46 35-39 2:28:54.35 2:29:25.04 0:30.69 11:22/M
443 Jennifer Hooyboer Rohnert Park CA 243 42 F 25 40-44 2:28:54.39 2:29:24.90 0:30.51 11:22/M
444 Carla Brown Rohnert Park CA 53 43 F 26 40-44 2:29:16.25 2:29:52.65 0:36.40 11:24/M
445 Kristen Humphreys Santa Rosa CA 251 42 F 27 40-44 2:29:27.83 2:30:01.15 0:33.32 11:25/M
446 Amanda McMichael Rohnert Park CA 346 21 F 10 20-24 2:29:28.73 2:30:02.14 0:33.41 11:25/M
447 Lara Miraglia Santa Rosa CA 360 32 F 47 30-34 2:29:47.48 2:30:06.91 0:19.43 11:26/M
448 Jamie Toliver Santa Rosa CA 551 28 F 38 25-29 2:29:54.01 2:30:13.71 0:19.70 11:27/M
449 Myriah Smith Santa Rosa CA 507 18 F 4 15-19 2:30:15.22 2:30:28.72 0:13.50 11:28/M
450 Efrain Vega Santa Rosa CA 565 38 M 40 35-39 2:30:15.43 2:30:16.27 0:00.84 11:28/M
451 Katie Coale San Rafael CA 93 26 F 39 25-29 2:30:26.83 2:30:56.04 0:29.21 11:29/M
452 Ryan Luis Concord CA 319 31 M 34 30-34 2:30:26.90 2:31:09.14 0:42.24 11:29/M
453 Amanda Luis Concord CA 318 26 F 40 25-29 2:30:27.55 2:31:09.24 0:41.69 11:29/M
454 Ron Ingram Midland TX 256 52 M 15 50-54 2:30:32.94 2:30:54.33 0:21.39 11:29/M
455 Jaclyn Ingram Midland TX 254 19 F 5 15-19 2:30:33.46 2:30:54.19 0:20.73 11:30/M
456 Suzanne Smetzer Napa CA 499 41 F 28 40-44 2:31:35.62 2:31:53.27 0:17.65 11:34/M
457 Gary Waller Scarborough ON 578 79 M 2 70-99 2:32:05.99 2:32:51.64 0:45.65 11:37/M
458 Valerie Stephens Santa Rosa CA 521 37 F 47 35-39 2:32:23.47 2:32:46.72 0:23.25 11:38/M
459 Maria Alvarez Cloverdale CA 14 44 F 29 40-44 2:32:30.32 2:32:41.38 0:11.06 11:38/M
460 Lisa Hulette Camp Meeker CA 250 44 F 30 40-44 2:33:24.28 2:34:04.47 0:40.19 11:43/M
461 Michaella Houston Santa Rosa CA 247 22 F 11 20-24 2:33:32.78 2:33:59.94 0:27.16 11:43/M
462 Hannah Egge Seal Beach CA 604 34 F 48 30-34 2:33:35.01 2:35:02.33 1:27.32 11:43/M
463 Mariah Paguio Elk Grove CA 403 42 F 31 40-44 2:33:49.39 2:34:21.59 0:32.20 11:45/M
464 Nicole Ramirez Santa Rosa CA 436 38 F 48 35-39 2:34:03.34 2:34:35.65 0:32.31 11:46/M
465 Joanna Mull Cloverdale CA 375 46 F 41 45-49 2:34:12.43 2:34:38.34 0:25.91 11:46/M
466 Michele Cameron Windsor CA 72 40 F 32 40-44 2:34:57.06 2:35:14.22 0:17.16 11:50/M
467 Regina De Melo Windsor CA 125 41 F 33 40-44 2:34:57.14 2:35:14.19 0:17.05 11:50/M
468 Robin Brown San Francisco CA 56 70 F 1 70-99 2:35:14.74 2:39:18.56 4:03.82 11:51/M
469 Jaime Hanna Sebastopol CA 219 28 F 41 25-29 2:35:29.41 2:36:01.03 0:31.62 11:52/M
470 Teresa Ingram Midland TX 257 52 F 25 50-54 2:36:05.12 2:36:25.66 0:20.54 11:55/M
471 Catherine Holcomb Santa Rosa CA 239 59 F 9 55-59 2:36:45.82 2:37:19.40 0:33.58 11:58/M
472 Jennifer Cardin San Jose CA 78 35 F 49 35-39 2:36:50.57 2:37:30.59 0:40.02 11:58/M
473 Kyle Cardin San Jose CA 79 35 M 41 35-39 2:36:50.87 2:37:30.67 0:39.80 11:58/M
474 Trisha Decaillet Rohnert Park CA 129 38 F 50 35-39 2:38:11.36 2:38:53.61 0:42.25 12:05/M
475 Amy Thorn Santa Rosa CA 546 27 F 42 25-29 2:38:13.91 2:38:32.10 0:18.19 12:05/M
476 Katie Cattell Santa Rosa CA 83 33 F 49 30-34 2:38:21.25 2:38:40.79 0:19.54 12:05/M
477 Sherri Costa Guerneville CA 110 48 F 42 45-49 2:38:31.98 2:39:10.96 0:38.98 12:06/M
478 Bill Frey Roseville CA 182 57 M 8 55-59 2:38:52.93 2:39:08.85 0:15.92 12:08/M
479 Tammie Frey Roseville CA 183 53 F 26 50-54 2:38:53.12 2:39:09.23 0:16.11 12:08/M
480 Dawn Justice Santa Rosa CA 271 50 F 27 50-54 2:39:02.73 2:39:47.26 0:44.53 12:08/M
481 Staci Fricker Petaluma CA 184 47 F 43 45-49 2:39:35.75 2:40:10.47 0:34.72 12:11/M
482 Rachael Schlief Windsor CA 482 52 F 28 50-54 2:40:09.70 2:40:46.32 0:36.62 12:14/M
483 Kelly Shannon Santa Rosa CA 488 27 F 43 25-29 2:40:59.60 2:41:25.46 0:25.86 12:17/M
484 Kate McLaughlin Santa Rosa CA 345 33 F 50 30-34 2:41:22.73 2:41:34.22 0:11.49 12:19/M
485 Tami Barrick Forestville CA 29 46 F 44 45-49 2:41:37.01 2:42:04.85 0:27.84 12:20/M
486 Shawna Eddy Windsor CA 147 41 F 34 40-44 2:41:46.18 2:42:19.40 0:33.22 12:21/M
487 Kristen Felice Huntley IL 165 31 F 51 30-34 2:42:52.47 2:43:35.20 0:42.73 12:26/M
488 Rocely Chu Santa Rosa CA 90 44 F 35 40-44 2:43:11.84 2:43:41.16 0:29.32 12:27/M
489 Jordan Dalzell Sunnyvale CA 123 26 F 44 25-29 2:43:23.37 2:44:02.09 0:38.72 12:28/M
490 Flavia Nicolae Modesto CA 385 41 F 36 40-44 2:43:30.58 2:44:09.47 0:38.89 12:29/M
491 Tammy Dier Santa Rosa CA 136 43 F 37 40-44 2:43:43.28 2:44:17.55 0:34.27 12:30/M
492 Nicki Phipps Forestville CA 425 50 F 29 50-54 2:44:08.27 2:44:18.04 0:09.77 12:32/M
493 Shannon Brown Manteca CA 57 40 F 38 40-44 2:44:39.12 2:45:10.90 0:31.78 12:34/M
494 Melinda Finton Rohnert Park CA 171 42 F 39 40-44 2:44:54.22 2:45:21.96 0:27.74 12:35/M
495 Lori Gates Santa Rosa CA 196 53 F 30 50-54 2:44:56.89 2:45:24.51 0:27.62 12:35/M
496 Mette Hansen-Seager Santa Rosa CA 223 49 F 45 45-49 2:45:07.39 2:45:48.92 0:41.53 12:36/M
497 Stephen Seager Santa Rosa CA 485 63 M 7 60-64 2:45:07.72 2:45:49.38 0:41.66 12:36/M
498 Jacob Seager Santa Rosa CA 484 14 M 3 10-14 2:45:07.83 2:45:48.73 0:40.90 12:36/M
499 Don Jones Rohnert Park CA 269 40 M 30 40-44 2:45:40.03 2:46:05.97 0:25.94 12:39/M
500 Nicole Brown Santa Rosa CA 54 28 F 45 25-29 2:45:45.01 2:46:26.51 0:41.50 12:39/M
 
Place Name City Bib No Age Gender Age Group Chip Time Gun Time Chip Diff Pace
501 Robin Cutter Clayton CA 121 50 F 31 50-54 2:46:08.81 2:47:17.08 1:08.27 12:41/M
502 Sallie Morris Santa Rosa CA 370 49 F 46 45-49 2:47:56.33 2:48:24.87 0:28.54 12:49/M
503 Jennifer Meyers Rohnert Park CA 356 32 F 52 30-34 2:47:57.80 2:48:27.70 0:29.90 12:49/M
504 Jessica Wong Healdsburg CA 584 32 F 53 30-34 2:48:17.48 2:48:33.47 0:15.99 12:51/M
505 Benjamin Hopkins Ukiah CA 244 32 M 35 30-34 2:48:26.10 2:49:04.45 0:38.35 12:51/M
506 Deleyse Langdale Sonoma CA 294 48 F 47 45-49 2:48:27.58 2:48:58.87 0:31.29 12:52/M
507 Frank Geldert Santa Rosa CA 197 54 M 16 50-54 2:48:36.82 2:49:04.53 0:27.71 12:52/M
508 Jan Elbert Grass Valley CA 156 49 F 48 45-49 2:48:38.71 2:49:23.40 0:44.69 12:52/M
509 Karen Finkenbiner Clayton CA 169 58 F 10 55-59 2:49:18.24 2:49:29.07 0:10.83 12:55/M
510 Laura McKeegan Walnut Creek CA 344 56 F 11 55-59 2:50:12.62 2:50:53.66 0:41.04 13:00/M
511 Nicole Hutts Paradise CA 252 29 F 46 25-29 2:50:26.67 2:51:09.76 0:43.09 13:01/M
512 Debbie Ogston Rohnert Park CA 394 57 F 12 55-59 2:50:47.43 2:51:25.22 0:37.79 13:02/M
513 Natasha Quinn Redwood City CA 434 23 F 12 20-24 2:51:22.35 2:52:00.33 0:37.98 13:05/M
514 Alexis McCutchen Stockton CA 337 48 F 49 45-49 2:52:03.97 2:52:36.00 0:32.03 13:08/M
515 Mary Geldert Santa Rosa CA 198 55 F 13 55-59 2:52:15.83 2:52:43.96 0:28.13 13:09/M
516 Casey Silva Penngrove CA 494 26 F 47 25-29 2:53:39.77 2:54:24.37 0:44.60 13:15/M
517 Erich Williams Windsor CA 581 45 M 36 45-49 2:53:59.60 2:54:21.79 0:22.19 13:17/M
518 John Ngau San Francisco CA 617 34 M 36 30-34 2:54:53.84 2:55:20.93 0:27.09 13:21/M
519 Marni Self Windsor CA 486 30 F 54 30-34 2:56:45.31 2:57:26.97 0:41.66 13:30/M
520 Cristina Lauck Concord CA 299 59 F 14 55-59 2:59:21.51 3:00:03.64 0:42.13 13:41/M
521 Lauren Fay Cotati CA 163 26 F 48 25-29 2:59:26.53 3:00:00.52 0:33.99 13:42/M
522 Tamera De Censo Santa Rosa CA 124 50 F 32 50-54 3:04:40.26 3:05:24.03 0:43.77 14:06/M
523 Deanne Peterson San Bruno CA 422 47 F 50 45-49 3:04:43.64 3:05:24.24 0:40.60 14:06/M
524 Christine Coulson Rohnert Park CA 111 50 F 33 50-54 3:04:46.10 3:05:13.95 0:27.85 14:06/M
525 Victoria Rendon Santa Rosa CA 445 37 F 51 35-39 3:12:24.45 3:12:59.97 0:35.52 14:41/M
526 Marcia Minton Windsor CA 359 51 F 34 50-54 3:12:24.87 3:13:02.74 0:37.87 14:41/M
527 Lela Emad Santa Rosa CA 158 51 F 35 50-54 3:15:24.41 3:16:02.06 0:37.65 14:55/M
528 Dominique Gaitan Windsor CA 186 39 F 52 35-39 3:18:39.84 3:19:21.45 0:41.61 15:10/M
529 Megan Berling Petaluma CA 39 30 F 55 30-34 3:18:46.05 3:19:21.57 0:35.52 15:10/M
530 Katie Fahy Petaluma CA 162 31 F 56 30-34 3:19:23.81 3:20:06.97 0:43.16 15:13/M
531 Kelly Dixon Windsor CA 138 50 F 36 50-54 3:19:50.24 3:20:21.08 0:30.84 15:15/M
532 Thomas Brown San Francisco CA 58 73 M 3 70-99 3:20:00.60 3:24:18.41 4:17.81 15:16/M